Time;durP1;ratioP1;P1;durP2;ratioP2;P2;SDS_P1;SDS_P2;PMS_P1;PMS_P2;Temp;Humidity;BMP_temperature;BMP_pressure;BME280_temperature;BME280_humidity;BME280_pressure;Samples;Min_cycle;Max_cycle;Signal;HPM_P1;HPM_P2
2022/02/20 00:02:04;;;;;;;4.63;0.57;;;5.20;99.90;;;;;;5016636;28;20025;-75
2022/02/20 00:04:29;;;;;;;3.78;0.10;;;5.80;99.90;;;;;;5025183;28;20032;-76
2022/02/20 00:06:56;;;;;;;4.53;0.10;;;5.20;99.90;;;;;;5052804;28;20029;-76
2022/02/20 00:09:21;;;;;;;5.50;0.63;;;5.10;99.90;;;;;;5037144;28;20032;-76
2022/02/20 00:11:47;;;;;;;7.53;1.25;;;5.10;99.90;;;;;;5056532;28;20021;-76
2022/02/20 00:14:12;;;;;;;3.60;0.00;;;5.10;99.90;;;;;;5056455;28;20381;-75
2022/02/20 00:16:38;;;;;;;2.90;0.00;;;5.00;99.90;;;;;;5056593;28;20407;-76
2022/02/20 00:19:04;;;;;;;6.00;0.00;;;5.00;99.90;;;;;;5043594;28;20036;-76
2022/02/20 00:21:29;;;;;;;1.25;0.10;;;5.10;99.90;;;;;;5036085;28;20477;-76
2022/02/20 00:23:55;;;;;;;5.88;0.00;;;5.00;99.90;;;;;;5035926;28;20080;-76
2022/02/20 00:26:20;;;;;;;4.60;0.00;;;5.00;99.90;;;;;;5036034;28;20104;-76
2022/02/20 00:28:46;;;;;;;3.42;0.10;;;5.00;99.90;;;;;;5018305;28;20041;-76
2022/02/20 00:31:11;;;;;;;2.47;0.32;;;5.10;99.90;;;;;;5036622;28;20036;-76
2022/02/20 00:33:37;;;;;;;3.28;0.00;;;5.10;99.90;;;;;;5046084;28;20025;-76
2022/02/20 00:36:03;;;;;;;1.30;0.00;;;5.10;99.90;;;;;;5056258;28;20025;-75
2022/02/20 00:38:28;;;;;;;4.10;0.20;;;5.10;99.90;;;;;;5055691;28;20047;-76
2022/02/20 00:40:54;;;;;;;3.60;0.40;;;5.10;99.90;;;;;;5055682;28;20025;-76
2022/02/20 00:43:20;;;;;;;0.40;0.00;;;5.10;99.90;;;;;;5055758;28;20017;-76
2022/02/20 00:45:45;;;;;;;1.85;0.00;;;5.10;99.90;;;;;;5055419;28;20215;-76
2022/02/20 00:48:16;;;;;;;1.08;0.00;;;5.00;99.90;;;;;;5042100;28;20033;-76
2022/02/20 00:50:41;;;;;;;4.57;0.00;;;5.00;99.90;;;;;;5036204;28;20060;-76
2022/02/20 00:53:07;;;;;;;0.75;0.00;;;5.00;99.90;;;;;;5035597;28;20045;-76
2022/02/20 00:55:33;;;;;;;1.92;0.35;;;4.90;99.90;;;;;;5036074;28;20013;-76
2022/02/20 00:57:58;;;;;;;2.72;0.00;;;5.00;99.90;;;;;;5035443;28;20022;-76
2022/02/20 01:00:24;;;;;;;0.77;0.00;;;5.00;99.90;;;;;;5017515;28;20020;-76
2022/02/20 01:02:50;;;;;;;4.63;0.28;;;5.00;99.90;;;;;;5029130;28;20080;-76
2022/02/20 01:05:16;;;;;;;3.30;0.00;;;5.00;99.90;;;;;;5055502;28;20458;-76
2022/02/20 01:07:41;;;;;;;3.10;0.30;;;5.10;99.90;;;;;;5055774;28;20082;-76
2022/02/20 01:10:10;;;;;;;0.77;0.00;;;5.10;99.90;;;;;;5037237;28;20021;-76
2022/02/20 01:12:35;;;;;;;7.20;0.35;;;5.10;99.90;;;;;;5055135;28;20025;-76
2022/02/20 01:15:01;;;;;;;5.35;0.25;;;5.10;99.90;;;;;;5055010;28;20044;-76
2022/02/20 01:17:27;;;;;;;8.30;0.30;;;5.20;99.90;;;;;;5040165;28;20032;-76
2022/02/20 01:19:53;;;;;;;2.33;0.30;;;5.20;99.90;;;;;;5016544;28;20406;-76
2022/02/20 01:22:22;;;;;;;0.70;0.00;;;5.20;99.90;;;;;;5035372;28;20104;-76
2022/02/20 01:24:48;;;;;;;0.65;0.00;;;5.20;99.90;;;;;;5016783;28;20040;-76
2022/02/20 01:27:14;;;;;;;0.03;0.00;;;5.20;99.90;;;;;;5034999;28;20112;-76
2022/02/20 01:29:39;;;;;;;4.40;0.00;;;5.20;99.90;;;;;;5034740;28;20034;-76
2022/02/20 01:32:05;;;;;;;3.22;0.00;;;5.20;99.90;;;;;;5030617;28;20036;-76
2022/02/20 01:34:31;;;;;;;5.05;0.52;;;5.30;99.90;;;;;;5036730;28;20029;-76
2022/02/20 01:36:57;;;;;;;2.80;0.35;;;5.30;99.90;;;;;;5054964;28;20040;-76
2022/02/20 01:39:23;;;;;;;0.55;0.10;;;5.30;99.90;;;;;;5054536;28;20025;-76
2022/02/20 01:41:53;;;;;;;1.73;0.00;;;5.20;99.90;;;;;;5054411;28;20021;-76
2022/02/20 01:44:19;;;;;;;0.20;0.00;;;5.20;99.90;;;;;;5054266;28;20025;-76
2022/02/20 01:46:49;;;;;;;3.13;0.00;;;5.20;99.90;;;;;;5036787;28;20029;-76
2022/02/20 01:49:16;;;;;;;1.42;0.22;;;5.20;99.90;;;;;;5016651;28;20079;-76
2022/02/20 01:51:41;;;;;;;1.75;0.10;;;5.20;99.90;;;;;;5016612;28;20493;-76
2022/02/20 01:54:08;;;;;;;1.80;0.00;;;5.30;99.90;;;;;;5034336;28;20021;-76
2022/02/20 01:56:34;;;;;;;4.88;0.20;;;5.30;99.90;;;;;;5016666;28;20542;-76
2022/02/20 01:59:02;;;;;;;0.15;0.00;;;5.30;99.90;;;;;;5034760;28;20382;-76
2022/02/20 02:01:28;;;;;;;5.82;0.20;;;5.20;99.90;;;;;;5035570;28;20036;-76
2022/02/20 02:03:53;;;;;;;1.95;0.00;;;5.20;99.90;;;;;;5047860;28;20021;-76
2022/02/20 02:06:19;;;;;;;1.48;0.30;;;5.20;99.90;;;;;;5034197;28;20442;-76
2022/02/20 02:08:44;;;;;;;4.45;0.00;;;5.30;99.90;;;;;;5034139;28;20105;-76
2022/02/20 02:11:12;;;;;;;1.95;0.00;;;5.30;99.90;;;;;;5034080;28;20096;-76
2022/02/20 02:13:37;;;;;;;1.45;0.20;;;5.20;99.90;;;;;;5033997;28;20419;-76
2022/02/20 02:16:03;;;;;;;1.75;0.00;;;5.20;99.90;;;;;;5034504;28;20064;-76
2022/02/20 02:18:29;;;;;;;0.47;0.00;;;5.20;99.90;;;;;;5023337;28;20390;-76
2022/02/20 02:20:54;;;;;;;2.22;0.00;;;5.30;99.90;;;;;;5053832;28;20052;-76
2022/02/20 02:23:20;;;;;;;2.33;0.25;;;5.30;99.90;;;;;;5035799;28;20482;-76
2022/02/20 02:25:49;;;;;;;1.20;0.00;;;5.40;99.90;;;;;;5053705;28;20017;-76
2022/02/20 02:28:15;;;;;;;3.72;0.40;;;5.30;99.90;;;;;;5053660;28;20021;-76
2022/02/20 02:30:41;;;;;;;5.53;0.55;;;5.30;99.90;;;;;;5053711;28;20036;-76
2022/02/20 02:33:06;;;;;;;0.20;0.00;;;5.30;99.90;;;;;;5029211;28;20025;-76
2022/02/20 02:35:32;;;;;;;0.57;0.00;;;5.30;99.90;;;;;;5033607;28;20056;-74
2022/02/20 02:37:58;;;;;;;3.25;0.35;;;5.20;99.90;;;;;;5015988;28;20471;-75
2022/02/20 02:40:24;;;;;;;2.83;0.00;;;5.20;99.90;;;;;;5033553;28;20025;-74
2022/02/20 02:42:50;;;;;;;1.83;0.00;;;5.20;99.90;;;;;;5033281;28;20091;-74
2022/02/20 02:45:15;;;;;;;9.90;0.25;;;5.20;99.90;;;;;;5033373;28;20410;-74
2022/02/20 02:47:47;;;;;;;3.90;0.20;;;5.30;99.90;;;;;;5041593;28;20067;-74
2022/02/20 02:50:13;;;;;;;0.20;0.00;;;5.30;99.90;;;;;;5053589;28;20043;-74
2022/02/20 02:52:39;;;;;;;1.55;0.00;;;5.30;99.90;;;;;;5053334;28;20096;-74
2022/02/20 02:55:05;;;;;;;4.82;0.00;;;5.30;99.90;;;;;;5053634;28;20056;-74
2022/02/20 02:57:31;;;;;;;3.78;0.00;;;5.20;99.90;;;;;;5053422;28;20031;-74
2022/02/20 02:59:58;;;;;;;1.27;0.00;;;5.20;99.90;;;;;;5019022;28;20017;-74
2022/02/20 03:02:23;;;;;;;4.25;0.00;;;5.20;99.90;;;;;;5033259;28;20390;-74
2022/02/20 03:04:49;;;;;;;0.95;0.00;;;5.20;99.90;;;;;;5015469;28;20025;-75
2022/02/20 03:07:14;;;;;;;1.75;0.00;;;5.20;99.90;;;;;;5033511;28;20076;-74
2022/02/20 03:09:40;;;;;;;3.58;0.00;;;5.20;99.90;;;;;;5015503;28;20427;-74
2022/02/20 03:12:08;;;;;;;2.58;0.00;;;5.20;99.90;;;;;;5015378;28;20474;-73
2022/02/20 03:14:34;;;;;;;2.55;0.00;;;5.10;99.90;;;;;;5032992;28;20021;-74
2022/02/20 03:16:59;;;;;;;5.25;0.43;;;5.20;99.90;;;;;;5033213;28;20021;-74
2022/02/20 03:19:25;;;;;;;2.10;0.52;;;5.20;99.90;;;;;;5033098;28;20116;-74
2022/02/20 03:21:50;;;;;;;6.57;0.00;;;5.20;99.90;;;;;;5015375;28;20025;-74
2022/02/20 03:24:16;;;;;;;2.65;0.00;;;5.20;99.90;;;;;;5032921;28;20026;-74
2022/02/20 03:26:41;;;;;;;1.50;0.05;;;5.30;99.90;;;;;;5033109;28;20021;-74
2022/02/20 03:29:07;;;;;;;5.78;0.00;;;5.30;99.90;;;;;;5050847;28;20112;-73
2022/02/20 03:31:33;;;;;;;4.78;0.55;;;5.20;99.90;;;;;;5052739;28;20075;-74
2022/02/20 03:33:59;;;;;;;3.20;0.20;;;5.20;99.90;;;;;;5034900;28;20064;-75
2022/02/20 03:36:24;;;;;;;4.13;0.05;;;5.20;99.90;;;;;;5053114;28;20087;-74
2022/02/20 03:38:50;;;;;;;2.78;0.00;;;5.20;99.90;;;;;;5052960;28;20481;-74
2022/02/20 03:41:16;;;;;;;2.50;0.00;;;5.10;99.90;;;;;;5022675;28;20034;-74
2022/02/20 03:43:41;;;;;;;3.55;0.08;;;5.10;99.90;;;;;;5034109;28;20045;-74
2022/02/20 03:46:07;;;;;;;1.60;0.08;;;5.10;99.90;;;;;;5036760;28;20100;-74
2022/02/20 03:48:33;;;;;;;3.97;0.00;;;5.10;99.90;;;;;;5036628;28;20528;-74
2022/02/20 03:50:58;;;;;;;2.47;0.10;;;5.10;99.90;;;;;;5018825;28;20029;-74
2022/02/20 03:53:24;;;;;;;3.40;0.17;;;5.10;99.90;;;;;;5036438;28;20068;-74
2022/02/20 03:55:49;;;;;;;3.63;0.00;;;5.10;99.90;;;;;;5045378;28;20086;-74
2022/02/20 03:58:15;;;;;;;4.28;0.00;;;5.10;99.90;;;;;;5056656;28;20481;-74
2022/02/20 04:00:40;;;;;;;4.05;0.30;;;5.10;99.90;;;;;;5056452;28;20025;-74
2022/02/20 04:03:06;;;;;;;3.47;0.55;;;5.10;99.90;;;;;;5056310;28;20025;-74
2022/02/20 04:05:32;;;;;;;7.70;0.32;;;5.00;99.90;;;;;;5036941;28;20056;-74
2022/02/20 04:07:57;;;;;;;2.38;0.00;;;4.90;99.90;;;;;;5036279;28;20104;-74
2022/02/20 04:10:23;;;;;;;4.63;0.00;;;4.90;99.90;;;;;;5036243;28;20033;-74
2022/02/20 04:12:49;;;;;;;7.22;0.20;;;4.90;99.90;;;;;;5036219;28;20029;-74
2022/02/20 04:15:15;;;;;;;2.90;0.00;;;4.90;99.90;;;;;;5036115;28;20056;-74
2022/02/20 04:17:46;;;;;;;3.40;0.00;;;4.90;99.90;;;;;;5036154;28;20029;-74
2022/02/20 04:20:15;;;;;;;6.45;0.10;;;4.90;99.90;;;;;;5018349;28;20116;-74
2022/02/20 04:22:41;;;;;;;1.00;0.20;;;4.90;99.90;;;;;;5036194;28;20022;-74
2022/02/20 04:25:08;;;;;;;6.85;0.10;;;4.90;99.90;;;;;;5036347;28;20037;-74
2022/02/20 04:27:33;;;;;;;2.83;0.00;;;4.90;99.90;;;;;;5035927;28;20108;-74
2022/02/20 04:29:59;;;;;;;4.38;0.00;;;4.90;99.90;;;;;;5018079;28;20076;-74
2022/02/20 04:32:25;;;;;;;3.67;0.28;;;4.90;99.90;;;;;;5037731;28;20057;-75
2022/02/20 04:34:50;;;;;;;1.38;0.38;;;4.90;99.90;;;;;;5055298;28;20494;-74
2022/02/20 04:37:16;;;;;;;3.13;0.30;;;4.90;99.90;;;;;;5056149;28;20389;-74
2022/02/20 04:39:41;;;;;;;4.80;0.30;;;4.90;99.90;;;;;;5037773;28;20482;-73
2022/02/20 04:42:07;;;;;;;2.45;0.40;;;4.90;99.90;;;;;;5055531;28;20023;-74
2022/02/20 04:44:32;;;;;;;7.20;0.73;;;4.90;99.90;;;;;;5055874;28;20033;-74
2022/02/20 04:46:58;;;;;;;4.00;0.40;;;4.90;99.90;;;;;;5051379;28;20017;-74
2022/02/20 04:49:23;;;;;;;2.20;0.73;;;4.80;99.90;;;;;;5035538;28;20029;-73
2022/02/20 04:51:49;;;;;;;5.63;0.90;;;4.80;99.90;;;;;;5035514;28;20025;-74
2022/02/20 04:54:15;;;;;;;6.03;0.90;;;4.80;99.90;;;;;;5017311;28;20029;-74
2022/02/20 04:56:42;;;;;;;6.50;0.88;;;4.80;99.90;;;;;;5034826;28;20029;-74
2022/02/20 04:59:11;;;;;;;5.32;1.33;;;4.80;99.90;;;;;;5017559;28;20114;-74
2022/02/20 05:01:38;;;;;;;5.90;2.60;;;4.80;99.90;;;;;;5044801;28;20017;-75
2022/02/20 05:04:05;;;;;;;8.60;1.55;;;4.80;99.90;;;;;;5055094;28;20024;-74
2022/02/20 05:06:30;;;;;;;6.57;1.35;;;4.80;99.90;;;;;;5054850;28;20052;-74
2022/02/20 05:08:57;;;;;;;5.25;1.30;;;4.70;99.90;;;;;;5055362;28;20060;-74
2022/02/20 05:11:27;;;;;;;4.93;1.38;;;4.80;99.90;;;;;;5054971;28;20032;-74
2022/02/20 05:13:55;;;;;;;6.65;1.10;;;4.80;99.90;;;;;;5037885;28;20021;-74
2022/02/20 05:16:21;;;;;;;9.65;1.95;;;4.70;99.90;;;;;;5041572;28;20029;-74
2022/02/20 05:18:47;;;;;;;8.85;1.58;;;4.70;99.90;;;;;;5034772;28;20025;-74
2022/02/20 05:21:13;;;;;;;7.15;1.45;;;4.80;99.90;;;;;;5054920;28;20504;-74
2022/02/20 05:23:38;;;;;;;5.55;2.42;;;4.70;99.90;;;;;;5054879;28;20025;-74
2022/02/20 05:26:04;;;;;;;9.65;2.00;;;4.80;99.90;;;;;;5054799;28;20021;-74
2022/02/20 05:28:30;;;;;;;6.22;2.33;;;4.80;99.90;;;;;;5036759;28;20124;-73
2022/02/20 05:30:55;;;;;;;9.18;2.40;;;4.70;99.90;;;;;;5036900;28;20482;-74
2022/02/20 05:33:21;;;;;;;10.57;2.95;;;4.70;99.90;;;;;;5037201;28;20065;-74
2022/02/20 05:35:46;;;;;;;10.57;3.28;;;4.70;99.90;;;;;;5034975;28;20026;-74
2022/02/20 05:38:12;;;;;;;8.02;2.47;;;4.70;99.90;;;;;;5034572;28;20060;-74
2022/02/20 05:40:38;;;;;;;8.00;2.80;;;4.70;99.90;;;;;;5034583;28;20028;-74
2022/02/20 05:43:07;;;;;;;10.88;2.97;;;4.60;99.90;;;;;;5034543;28;20049;-74
2022/02/20 05:45:32;;;;;;;19.08;3.10;;;4.60;99.90;;;;;;5016784;28;20071;-74
2022/02/20 05:47:58;;;;;;;12.60;3.10;;;4.70;99.90;;;;;;5033093;28;20108;-74
2022/02/20 05:50:24;;;;;;;11.13;3.42;;;4.70;99.90;;;;;;5054944;28;20029;-74
2022/02/20 05:52:49;;;;;;;14.43;3.00;;;4.70;99.90;;;;;;5054386;28;20135;-73
2022/02/20 05:55:15;;;;;;;14.20;3.70;;;4.80;99.90;;;;;;5054258;28;20508;-74
2022/02/20 05:57:45;;;;;;;13.55;2.90;;;4.80;99.90;;;;;;5054259;28;20057;-74
2022/02/20 06:00:13;;;;;;;11.38;3.58;;;4.80;99.90;;;;;;5054223;28;20017;-75
2022/02/20 06:02:39;;;;;;;13.85;3.60;;;4.90;99.90;;;;;;5034016;28;20021;-74
2022/02/20 06:05:05;;;;;;;9.27;3.25;;;4.90;99.90;;;;;;5049053;28;20095;-74
2022/02/20 06:07:31;;;;;;;12.95;3.97;;;4.90;99.90;;;;;;5053800;28;20029;-74
2022/02/20 06:09:57;;;;;;;13.63;3.72;;;5.00;99.90;;;;;;5053835;28;20021;-74
2022/02/20 06:12:23;;;;;;;15.73;3.55;;;5.10;99.90;;;;;;5053813;28;20493;-74
2022/02/20 06:14:48;;;;;;;14.60;4.03;;;5.10;99.90;;;;;;5053644;28;20544;-74
2022/02/20 06:17:14;;;;;;;15.82;3.67;;;5.10;99.90;;;;;;5035640;28;20060;-74
2022/02/20 06:19:39;;;;;;;13.30;3.65;;;5.10;99.90;;;;;;5053871;28;20047;-74
2022/02/20 06:22:05;;;;;;;12.95;3.55;;;5.20;99.90;;;;;;5053546;28;20064;-74
2022/02/20 06:24:31;;;;;;;9.93;2.92;;;5.20;99.90;;;;;;5053551;28;20051;-74
2022/02/20 06:26:58;;;;;;;9.68;2.42;;;5.20;99.90;;;;;;5053550;28;20029;-74
2022/02/20 06:29:24;;;;;;;10.55;3.03;;;5.30;99.90;;;;;;5053379;28;20024;-74
2022/02/20 06:31:50;;;;;;;11.98;2.90;;;5.30;99.90;;;;;;5054004;28;20122;-74
2022/02/20 06:34:15;;;;;;;10.48;2.55;;;5.40;99.90;;;;;;5053389;28;20033;-74
2022/02/20 06:36:41;;;;;;;10.10;2.22;;;5.50;99.90;;;;;;5053390;28;20021;-73
2022/02/20 06:39:07;;;;;;;12.02;3.42;;;5.50;99.90;;;;;;5053254;28;20482;-73
2022/02/20 06:41:33;;;;;;;11.10;3.15;;;5.70;99.90;;;;;;5053965;28;20017;-75
2022/02/20 06:43:58;;;;;;;15.65;2.90;;;5.70;99.90;;;;;;5035422;28;20025;-74
2022/02/20 06:46:24;;;;;;;10.27;2.97;;;5.80;99.90;;;;;;5053293;28;20382;-74
2022/02/20 06:48:49;;;;;;;6.65;2.15;;;5.80;99.90;;;;;;5053245;28;20104;-74
2022/02/20 06:51:15;;;;;;;8.35;2.00;;;5.90;99.90;;;;;;5053251;28;20037;-74
2022/02/20 06:53:40;;;;;;;9.00;2.83;;;6.00;99.90;;;;;;5049870;28;20038;-74
2022/02/20 06:56:06;;;;;;;12.40;3.97;;;6.00;99.90;;;;;;5033476;28;20028;-74
2022/02/20 06:58:31;;;;;;;8.68;2.05;;;6.10;99.90;;;;;;5015454;28;20064;-74
2022/02/20 07:00:57;;;;;;;5.60;1.85;;;6.10;99.90;;;;;;5033631;28;20022;-74
2022/02/20 07:03:22;;;;;;;5.32;1.75;;;6.30;99.90;;;;;;5015528;28;20060;-73
2022/02/20 07:05:48;;;;;;;8.10;2.90;;;6.30;99.90;;;;;;5033548;28;20010;-74
2022/02/20 07:08:13;;;;;;;11.85;2.92;;;6.40;99.90;;;;;;5016616;28;20030;-75
2022/02/20 07:10:39;;;;;;;6.53;1.95;;;6.50;99.90;;;;;;5053443;28;20036;-75
2022/02/20 07:13:04;;;;;;;9.13;2.60;;;6.60;99.90;;;;;;5053238;28;20036;-75
2022/02/20 07:15:33;;;;;;;7.82;2.17;;;6.60;99.90;;;;;;5053679;28;20024;-75
2022/02/20 07:17:58;;;;;;;5.22;1.00;;;6.60;99.90;;;;;;5053188;28;20052;-75
2022/02/20 07:20:24;;;;;;;6.85;1.45;;;6.80;99.90;;;;;;5057324;28;20025;-74
2022/02/20 07:22:50;;;;;;;6.90;1.58;;;6.90;99.90;;;;;;5046274;28;20025;-75
2022/02/20 07:25:15;;;;;;;8.30;2.17;;;6.90;99.90;;;;;;5037001;28;20068;-75
2022/02/20 07:27:43;;;;;;;2.97;0.63;;;7.00;99.90;;;;;;5019223;28;20099;-75
2022/02/20 07:30:11;;;;;;;6.95;1.98;;;7.10;99.90;;;;;;5040763;28;20116;-75
2022/02/20 07:32:36;;;;;;;9.82;1.45;;;7.30;99.90;;;;;;5036885;28;20091;-75
2022/02/20 07:35:03;;;;;;;8.88;1.00;;;7.30;99.90;;;;;;5037174;28;20025;-75
2022/02/20 07:37:29;;;;;;;5.72;1.00;;;7.50;99.90;;;;;;5036905;28;20494;-74
2022/02/20 07:39:56;;;;;;;10.88;1.95;;;7.60;99.90;;;;;;5019158;28;20068;-75
2022/02/20 07:42:22;;;;;;;8.88;1.00;;;7.70;99.90;;;;;;5018970;28;20025;-76
2022/02/20 07:44:48;;;;;;;5.80;0.25;;;7.80;99.90;;;;;;5036752;28;20048;-75
2022/02/20 07:47:13;;;;;;;16.55;2.83;;;7.90;99.90;;;;;;5036881;28;20538;-75
2022/02/20 07:49:39;;;;;;;13.55;1.52;;;8.00;99.90;;;;;;5036720;28;20390;-75
2022/02/20 07:52:05;;;;;;;12.95;1.85;;;8.10;99.90;;;;;;5037249;28;20398;-76
2022/02/20 07:54:31;;;;;;;11.95;1.52;;;8.10;99.90;;;;;;5046159;28;20029;-75
2022/02/20 07:56:57;;;;;;;17.40;0.90;;;8.20;99.90;;;;;;5056498;28;20474;-74
2022/02/20 07:59:22;;;;;;;13.05;0.65;;;8.30;99.90;;;;;;5056530;28;20021;-74
2022/02/20 08:01:48;;;;;;;10.35;0.60;;;8.30;99.90;;;;;;5038359;28;20496;-74
2022/02/20 08:04:15;;;;;;;9.13;1.90;;;8.30;99.90;;;;;;5028098;28;20013;-74
2022/02/20 08:06:41;;;;;;;25.65;3.20;;;8.40;99.90;;;;;;5038613;28;20033;-73
2022/02/20 08:09:06;;;;;;;18.70;2.08;;;8.50;99.90;;;;;;5056788;28;20036;-75
2022/02/20 08:11:33;;;;;;;25.40;2.72;;;8.50;99.90;;;;;;5034572;28;20136;-75
2022/02/20 08:13:59;;;;;;;22.05;2.25;;;8.60;99.90;;;;;;5036353;28;20029;-76
2022/02/20 08:16:25;;;;;;;23.23;2.60;;;8.60;99.90;;;;;;5036546;28;20056;-75
2022/02/20 08:18:51;;;;;;;26.23;3.08;;;8.70;99.90;;;;;;5036372;28;20036;-75
2022/02/20 08:21:17;;;;;;;29.70;2.75;;;8.80;99.90;;;;;;5022160;28;20041;-76
2022/02/20 08:23:42;;;;;;;28.98;2.65;;;8.80;99.90;;;;;;5036061;28;20570;-76
2022/02/20 08:26:08;;;;;;;29.52;2.22;;;8.90;99.90;;;;;;5047850;28;20096;-76
2022/02/20 08:28:33;;;;;;;32.72;3.65;;;8.90;99.90;;;;;;5040194;28;20021;-76
2022/02/20 08:30:59;;;;;;;17.88;1.50;;;9.00;99.90;;;;;;5045036;28;20052;-76
2022/02/20 08:33:27;;;;;;;18.05;2.22;;;9.10;99.90;;;;;;5046285;28;20022;-75
2022/02/20 08:35:52;;;;;;;25.83;1.75;;;9.10;99.90;;;;;;5038430;28;20028;-76
2022/02/20 08:38:21;;;;;;;29.15;2.05;;;9.10;99.90;;;;;;5026453;28;20402;-75
2022/02/20 08:40:50;;;;;;;20.73;2.90;;;9.20;99.90;;;;;;5054992;28;20029;-75
2022/02/20 08:43:20;;;;;;;20.90;4.28;;;9.20;99.90;;;;;;5037798;28;20021;-75
2022/02/20 08:45:48;;;;;;;25.80;2.42;;;9.30;99.90;;;;;;5055895;28;20025;-76
2022/02/20 08:48:14;;;;;;;36.22;3.38;;;9.30;99.90;;;;;;5055746;28;20493;-76
2022/02/20 08:50:42;;;;;;;23.15;2.15;;;9.40;99.90;;;;;;5051138;28;20028;-76
2022/02/20 08:53:08;;;;;;;23.60;2.72;;;9.40;99.90;;;;;;5039052;28;20025;-76
2022/02/20 08:55:34;;;;;;;27.73;3.67;;;9.40;99.90;;;;;;5035919;28;20025;-76
2022/02/20 08:58:00;;;;;;;31.35;3.05;;;9.40;99.90;;;;;;5021299;28;20025;-76
2022/02/20 09:00:25;;;;;;;33.67;2.10;;;9.40;99.90;;;;;;5055474;28;20155;-76
2022/02/20 09:02:51;;;;;;;30.70;3.58;;;9.50;99.90;;;;;;5055402;28;20018;-76
2022/02/20 09:05:17;;;;;;;15.30;1.85;;;9.50;99.90;;;;;;5042660;28;20135;-76
2022/02/20 09:07:42;;;;;;;34.45;4.18;;;9.60;99.90;;;;;;5035313;28;20096;-76
2022/02/20 09:10:09;;;;;;;35.33;2.13;;;9.60;99.90;;;;;;5035406;28;20026;-76
2022/02/20 09:12:36;;;;;;;26.17;3.28;;;9.60;99.90;;;;;;5045356;28;20470;-76
2022/02/20 09:15:07;;;;;;;20.88;2.22;;;9.60;99.90;;;;;;5054970;28;20172;-76
2022/02/20 09:17:33;;;;;;;25.45;3.05;;;9.70;99.90;;;;;;5026208;28;20096;-76
2022/02/20 09:20:00;;;;;;;27.13;2.45;;;9.80;99.90;;;;;;5017339;28;20034;-76
2022/02/20 09:22:26;;;;;;;18.67;1.75;;;9.80;99.90;;;;;;5035290;28;20032;-75
2022/02/20 09:24:54;;;;;;;35.00;2.70;;;9.80;99.90;;;;;;5034963;28;20112;-76
2022/02/20 09:27:21;;;;;;;19.73;3.58;;;9.80;99.90;;;;;;5037353;28;20021;-76
2022/02/20 09:29:46;;;;;;;27.80;2.33;;;9.90;99.90;;;;;;5018764;28;20037;-76
2022/02/20 09:32:12;;;;;;;32.72;3.47;;;9.90;99.90;;;;;;5034741;28;20036;-76
2022/02/20 09:34:37;;;;;;;26.08;4.03;;;9.90;99.90;;;;;;5034711;28;20109;-76
2022/02/20 09:37:04;;;;;;;33.30;3.13;;;10.00;99.90;;;;;;5053141;28;20013;-76
2022/02/20 09:39:30;;;;;;;34.03;3.10;;;10.00;99.90;;;;;;5055015;28;20021;-76
2022/02/20 09:41:59;;;;;;;19.42;2.40;;;10.00;99.90;;;;;;5053808;28;20051;-76
2022/02/20 09:44:27;;;;;;;23.85;3.33;;;10.00;99.90;;;;;;5052696;28;20025;-76
2022/02/20 09:46:53;;;;;;;30.05;2.83;;;10.10;99.90;;;;;;5054475;28;20041;-76
2022/02/20 09:49:24;;;;;;;28.42;3.53;;;10.10;99.90;;;;;;5036897;28;20112;-76
2022/02/20 09:51:50;;;;;;;36.15;4.85;;;10.10;99.90;;;;;;5054587;28;20104;-76
2022/02/20 09:54:15;;;;;;;22.67;3.50;;;10.10;99.90;;;;;;5036400;28;20059;-76
2022/02/20 09:56:41;;;;;;;27.00;2.38;;;10.20;99.90;;;;;;5054525;28;20071;-76
2022/02/20 09:59:06;;;;;;;28.70;3.35;;;10.20;99.90;;;;;;5053172;28;20025;-76
2022/02/20 10:01:32;;;;;;;33.03;2.70;;;10.20;99.90;;;;;;5039305;28;20025;-76
2022/02/20 10:03:58;;;;;;;38.22;2.78;;;10.20;99.90;;;;;;5030089;28;20022;-75
2022/02/20 10:06:29;;;;;;;21.25;2.80;;;10.20;99.90;;;;;;5016708;28;20025;-76
2022/02/20 10:08:58;;;;;;;32.22;3.90;;;10.20;99.90;;;;;;5016849;28;20080;-76
2022/02/20 10:11:28;;;;;;;41.53;4.20;;;10.20;99.90;;;;;;5034588;28;20025;-76
2022/02/20 10:14:03;;;;;;;35.33;4.05;;;10.20;99.90;;;;;;5033986;28;20021;-76
2022/02/20 10:16:31;;;;;;;33.25;2.85;;;10.20;99.90;;;;;;5034104;28;20029;-77
2022/02/20 10:18:58;;;;;;;34.50;2.70;;;10.10;99.90;;;;;;5045424;28;20075;-77
2022/02/20 10:21:29;;;;;;;33.35;5.05;;;10.10;99.90;;;;;;5054116;28;20525;-76
2022/02/20 10:24:04;;;;;;;19.13;1.90;;;10.10;99.90;;;;;;5054409;28;20029;-74
2022/02/20 10:26:29;;;;;;;24.83;3.17;;;10.10;99.90;;;;;;5053942;28;20018;-73
2022/02/20 10:29:04;;;;;;;43.10;3.90;;;10.00;99.90;;;;;;5053590;28;20033;-73
2022/02/20 10:31:53;;;;;;;27.60;3.70;;;10.10;99.90;;;;;;5053604;28;20024;-73
2022/02/20 10:34:27;;;;;;;37.70;4.70;;;10.00;99.90;;;;;;5019060;28;20120;-73
2022/02/20 10:37:04;;;;;;;41.03;4.22;;;10.00;99.90;;;;;;5034809;28;20053;-73
2022/02/20 10:39:40;;;;;;;43.67;5.00;;;9.90;99.90;;;;;;5015837;28;20029;-76
2022/02/20 10:42:13;;;;;;;34.08;3.38;;;9.80;99.90;;;;;;5033568;28;20045;-76
2022/02/20 10:44:51;;;;;;;35.15;5.10;;;9.80;99.90;;;;;;5033651;28;20075;-75
2022/02/20 10:47:17;;;;;;;24.70;2.72;;;9.80;99.90;;;;;;5015898;28;20391;-75
2022/02/20 10:49:46;;;;;;;39.80;3.38;;;9.70;99.90;;;;;;5015851;28;20022;-75
2022/02/20 10:52:25;;;;;;;32.58;4.90;;;12.20;99.90;;;;;;5015833;28;20030;-76
2022/02/20 10:55:07;;;;;;;25.85;2.17;;;9.70;99.90;;;;;;5033279;28;20025;-75
2022/02/20 10:57:42;;;;;;;19.15;2.65;;;9.70;99.90;;;;;;5033505;28;20052;-75
2022/02/20 11:00:15;;;;;;;34.40;2.13;;;9.60;99.90;;;;;;5033897;28;20025;-76
2022/02/20 11:02:42;;;;;;;33.33;3.00;;;9.50;99.90;;;;;;5047541;28;20021;-76
2022/02/20 11:05:08;;;;;;;42.72;3.50;;;9.60;99.90;;;;;;5035251;28;20018;-75
2022/02/20 11:07:40;;;;;;;36.13;3.53;;;9.50;99.90;;;;;;5053269;28;20025;-76
2022/02/20 11:10:09;;;;;;;19.80;2.30;;;9.80;99.90;;;;;;5053284;28;20032;-76
2022/02/20 11:12:36;;;;;;;21.77;1.75;;;9.50;99.90;;;;;;5053998;28;20022;-75
2022/02/20 11:15:04;;;;;;;29.73;2.83;;;9.40;99.90;;;;;;5053164;28;20085;-75
2022/02/20 11:17:31;;;;;;;28.33;2.65;;;9.40;99.90;;;;;;5052985;28;20025;-75
2022/02/20 11:19:58;;;;;;;26.60;3.58;;;9.40;99.90;;;;;;5053211;28;20060;-75
2022/02/20 11:22:30;;;;;;;18.15;2.60;;;9.40;99.90;;;;;;5053611;28;20103;-75
2022/02/20 11:24:58;;;;;;;38.40;3.83;;;9.40;99.90;;;;;;5053357;28;20021;-76
2022/02/20 11:27:25;;;;;;;35.75;3.33;;;9.40;99.90;;;;;;5053655;28;20112;-74
2022/02/20 11:29:51;;;;;;;24.55;2.63;;;9.40;99.90;;;;;;5053167;28;20025;-76
2022/02/20 11:32:18;;;;;;;25.65;2.67;;;9.40;99.90;;;;;;5038925;28;20031;-74
2022/02/20 11:34:44;;;;;;;29.60;3.80;;;9.50;99.90;;;;;;5053343;28;20021;-76
2022/02/20 11:37:14;;;;;;;21.70;3.75;;;9.50;99.90;;;;;;5035880;28;20415;-74
2022/02/20 11:39:58;;;;;;;37.58;4.10;;;9.50;99.90;;;;;;5035479;28;20100;-74
2022/02/20 11:42:24;;;;;;;27.08;2.58;;;9.50;99.90;;;;;;5053473;28;20032;-76
2022/02/20 11:45:05;;;;;;;25.05;2.20;;;9.50;99.90;;;;;;5052967;28;20044;-76
2022/02/20 11:47:44;;;;;;;24.00;2.30;;;9.50;99.90;;;;;;5042310;28;20087;-76
2022/02/20 11:50:13;;;;;;;35.00;6.05;;;9.60;99.90;;;;;;5033475;28;20017;-74
2022/02/20 11:52:57;;;;;;;24.55;1.48;;;9.60;99.90;;;;;;5015350;28;20034;-75
2022/02/20 11:55:32;;;;;;;16.48;2.58;;;9.60;99.90;;;;;;5015217;28;20032;-76
2022/02/20 11:58:16;;;;;;;34.35;4.13;;;9.50;99.90;;;;;;5048135;28;20025;-77
2022/02/20 12:00:54;;;;;;;33.70;3.20;;;9.60;99.90;;;;;;5053207;28;20021;-76
2022/02/20 12:03:21;;;;;;;37.00;5.95;;;9.60;99.90;;;;;;5052552;28;20029;-76
2022/02/20 12:06:08;;;;;;;33.55;3.33;;;9.60;99.90;;;;;;5038015;28;20477;-76
2022/02/20 12:08:45;;;;;;;36.22;3.33;;;9.60;99.90;;;;;;5056437;28;20025;-76
2022/02/20 12:11:19;;;;;;;47.47;5.53;;;9.60;99.90;;;;;;5056406;28;20032;-76
2022/02/20 12:13:50;;;;;;;28.15;3.65;;;9.60;99.90;;;;;;5055931;28;20071;-77
2022/02/20 12:16:32;;;;;;;39.95;3.92;;;9.60;99.90;;;;;;5056314;28;20029;-76
2022/02/20 12:19:18;;;;;;;36.92;4.63;;;9.60;99.90;;;;;;5056236;28;20025;-76
2022/02/20 12:21:52;;;;;;;29.45;3.67;;;9.60;99.90;;;;;;5056663;28;20386;-76
2022/02/20 12:24:42;;;;;;;33.35;3.22;;;9.70;99.90;;;;;;5038222;28;20476;-76
2022/02/20 12:27:21;;;;;;;29.40;3.53;;;9.70;99.90;;;;;;5038364;28;20025;-76
2022/02/20 12:29:50;;;;;;;27.77;3.20;;;9.60;99.90;;;;;;5037848;28;20021;-75
2022/02/20 12:32:25;;;;;;;36.72;3.20;;;9.70;99.90;;;;;;5036751;28;20017;-77
2022/02/20 12:34:57;;;;;;;28.70;4.47;;;9.70;99.90;;;;;;5037595;28;20379;-77
2022/02/20 12:37:34;;;;;;;18.65;2.65;;;9.70;99.90;;;;;;5044504;28;20103;-76
2022/02/20 12:40:13;;;;;;;31.55;3.55;;;9.60;99.90;;;;;;5038157;28;20022;-75
2022/02/20 12:42:59;;;;;;;43.63;4.38;;;9.60;99.90;;;;;;5038004;28;20021;-76
2022/02/20 12:45:37;;;;;;;22.50;2.03;;;9.60;99.90;;;;;;5056534;28;20032;-75
2022/02/20 12:48:06;;;;;;;29.60;2.53;;;9.60;99.90;;;;;;5056284;28;20017;-75
2022/02/20 12:50:34;;;;;;;;;;;9.60;99.90;;;;;;5057480;28;20036;-77
2022/02/20 12:53:02;;;;;;;26.17;2.88;;;9.60;99.90;;;;;;5023592;28;19905;-77
2022/02/20 12:55:28;;;;;;;;;;;9.60;99.90;;;;;;5036197;28;20382;-76